Time;durP1;ratioP1;P1;durP2;ratioP2;P2;SDS_P1;SDS_P2;PMS_P1;PMS_P2;Temp;Humidity;BMP_temperature;BMP_pressure;BME280_temperature;BME280_humidity;BME280_pressure;Samples;Min_cycle;Max_cycle;Signal;HPM_P1;HPM_P2
2023/04/23 00:01:49;;;;;;;7.30;5.72;;;;;;;12.95;100.00;99640.25;5013262;28;20612;-93
2023/04/23 00:04:37;;;;;;;8.18;5.32;;;;;;;12.73;100.00;99608.13;5030242;28;20049;-92
2023/04/23 00:07:20;;;;;;;7.28;5.68;;;;;;;12.86;100.00;99648.84;5004270;28;20435;-93
2023/04/23 00:09:58;;;;;;;9.23;6.20;;;;;;;13.05;100.00;99668.88;5010080;28;20046;-93
2023/04/23 00:12:48;;;;;;;8.20;6.28;;;;;;;12.90;100.00;99642.38;5021118;28;20041;-91
2023/04/23 00:15:20;;;;;;;;;;;;;;;13.09;100.00;99671.19;4990698;28;20102;-92
2023/04/23 00:17:51;;;;;;;8.10;5.78;;;;;;;12.74;100.00;99607.19;5001400;28;20362;-92
2023/04/23 00:20:22;;;;;;;9.43;6.40;;;;;;;12.78;100.00;99613.13;4982245;28;20038;-91
2023/04/23 00:22:52;;;;;;;7.00;6.03;;;;;;;13.10;100.00;99672.03;4999629;28;20570;-93
2023/04/23 00:25:22;;;;;;;6.95;6.25;;;;;;;12.79;100.00;99620.97;4989366;28;20157;-92
2023/04/23 00:27:49;;;;;;;8.73;6.30;;;;;;;13.15;100.00;99673.47;5003783;28;20084;-92
2023/04/23 00:30:22;;;;;;;8.17;6.37;;;;;;;12.82;100.00;99618.13;5003837;28;20044;-89
2023/04/23 00:32:53;;;;;;;9.15;6.43;;;;;;;13.16;100.00;99676.97;5010244;28;20064;-90
2023/04/23 00:35:30;;;;;;;8.75;5.90;;;;;;;13.02;100.00;99655.78;5011871;28;20045;-88
2023/04/23 00:38:05;;;;;;;9.80;6.57;;;;;;;13.05;100.00;99652.91;5016703;28;20029;-91
2023/04/23 00:40:35;;;;;;;9.18;6.05;;;;;;;12.97;100.00;99656.09;5010367;28;20065;-92
2023/04/23 00:43:06;;;;;;;9.45;6.38;;;;;;;12.86;100.00;99654.16;5012545;28;20038;-92
2023/04/23 00:45:37;;;;;;;8.02;6.25;;;;;;;12.76;100.00;99662.84;5006825;28;20050;-93
2023/04/23 00:48:06;;;;;;;9.25;6.82;;;;;;;12.67;100.00;99664.31;4996001;28;20050;-92
2023/04/23 00:50:38;;;;;;;;;;;;;;;12.60;100.00;99676.31;5005352;28;20038;-92
2023/04/23 00:53:08;;;;;;;10.48;7.50;;;;;;;12.28;100.00;99620.88;5013546;28;19941;-89
2023/04/23 00:55:40;;;;;;;9.32;7.50;;;;;;;12.52;100.00;99660.03;5018124;28;20118;-91
2023/04/23 00:58:10;;;;;;;10.60;7.32;;;;;;;12.49;100.00;99655.78;5019401;28;20038;-90
2023/04/23 01:00:45;;;;;;;10.55;7.20;;;;;;;12.56;100.00;99665.06;5017028;28;20052;-92
2023/04/23 01:03:17;;;;;;;8.80;7.20;;;;;;;12.61;100.00;99662.91;5015030;28;20080;-92
2023/04/23 01:05:48;;;;;;;8.93;7.82;;;;;;;12.60;100.00;99674.50;4992333;28;20052;-93
2023/04/23 01:08:29;;;;;;;10.38;8.00;;;;;;;12.51;100.00;99645.91;5006079;28;20061;-93
2023/04/23 01:11:05;;;;;;;8.35;7.40;;;;;;;12.61;100.00;99672.69;4985709;28;20042;-92
2023/04/23 01:13:34;;;;;;;11.50;8.55;;;;;;;12.58;100.00;99673.78;5003289;28;20630;-93
2023/04/23 01:16:02;;;;;;;11.88;8.20;;;;;;;12.42;100.00;99637.72;5020936;28;20053;-92
2023/04/23 01:18:35;;;;;;;12.90;8.32;;;;;;;12.60;100.00;99668.34;5043049;28;20105;-93
2023/04/23 01:21:10;;;;;;;10.25;9.13;;;;;;;12.64;100.00;99665.38;5052792;28;20048;-93
2023/04/23 01:23:38;;;;;;;10.68;8.13;;;;;;;12.65;100.00;99671.53;5055823;28;20474;-92
2023/04/23 01:26:14;;;;;;;11.52;8.25;;;;;;;12.66;100.00;99667.94;5047426;28;20175;-93
2023/04/23 01:28:46;;;;;;;12.88;9.23;;;;;;;12.51;100.00;99648.56;5055016;28;20092;-93
2023/04/23 01:31:29;;;;;;;11.43;8.32;;;;;;;12.46;100.00;99648.00;5078042;28;20150;-92
2023/04/23 01:34:03;;;;;;;10.20;9.07;;;;;;;12.36;100.00;99625.69;5051808;28;20056;-90
2023/04/23 01:36:46;;;;;;;11.30;8.98;;;;;;;12.63;100.00;99676.94;5063117;28;20064;-91
2023/04/23 01:39:29;;;;;;;11.50;9.48;;;;;;;12.36;100.00;99632.81;5040158;28;20037;-91
2023/04/23 01:41:57;;;;;;;11.18;9.48;;;;;;;12.45;100.00;99656.94;5052731;28;20072;-92
2023/04/23 01:44:29;;;;;;;11.68;9.93;;;;;;;12.53;100.00;99675.03;5048648;28;20056;-92
2023/04/23 01:46:57;;;;;;;14.30;10.07;;;;;;;12.45;100.00;99679.97;5057525;28;20037;-92
2023/04/23 01:49:24;;;;;;;12.55;10.40;;;;;;;12.01;100.00;99617.38;5057143;28;20048;-92
2023/04/23 01:51:52;;;;;;;12.88;10.73;;;;;;;12.26;100.00;99664.44;5041708;28;20105;-91
2023/04/23 01:54:20;;;;;;;13.02;10.18;;;;;;;12.37;100.00;99688.47;5065891;28;20033;-89
2023/04/23 01:56:47;;;;;;;16.05;11.43;;;;;;;12.25;100.00;99676.00;5071907;28;20293;-90
2023/04/23 01:59:16;;;;;;;13.30;10.98;;;;;;;12.28;100.00;99684.59;5054603;28;20067;-90
2023/04/23 02:01:45;;;;;;;14.13;10.68;;;;;;;12.28;100.00;99699.66;5048939;28;20488;-91
2023/04/23 02:04:14;;;;;;;13.68;11.18;;;;;;;12.24;100.00;99699.03;5042931;28;20045;-88
2023/04/23 02:06:47;;;;;;;14.50;11.63;;;;;;;12.06;100.00;99689.59;5050681;28;20355;-91
2023/04/23 02:09:15;;;;;;;16.15;12.10;;;;;;;11.78;100.00;99656.03;5042917;28;20051;-90
2023/04/23 02:11:45;;;;;;;16.17;12.00;;;;;;;12.09;100.00;99689.41;5067398;28;20116;-90
2023/04/23 02:14:17;;;;;;;17.08;13.30;;;;;;;11.90;100.00;99679.13;5060767;28;20072;-92
2023/04/23 02:16:46;;;;;;;17.15;13.68;;;;;;;11.92;100.00;99689.63;5040057;28;20137;-91
2023/04/23 02:19:15;;;;;;;18.15;13.75;;;;;;;12.00;100.00;99713.00;5056400;28;20049;-88
2023/04/23 02:21:47;;;;;;;18.17;13.32;;;;;;;11.91;100.00;99699.38;5052858;28;20048;-88
2023/04/23 02:24:18;;;;;;;16.27;12.68;;;;;;;12.02;100.00;99713.75;5056754;28;20113;-89
2023/04/23 02:26:47;;;;;;;17.02;13.68;;;;;;;12.05;100.00;99698.50;5056414;28;20025;-90
2023/04/23 02:29:14;;;;;;;15.48;12.73;;;;;;;11.88;100.00;99670.41;5070633;28;20064;-90
2023/04/23 02:31:45;;;;;;;16.42;13.10;;;;;;;12.10;100.00;99699.06;5065603;28;20689;-91
2023/04/23 02:34:12;;;;;;;16.58;13.57;;;;;;;11.93;100.00;99683.38;5040141;28;20049;-88
2023/04/23 02:36:39;;;;;;;20.27;13.70;;;;;;;11.96;100.00;99677.88;5035478;28;20045;-91
2023/04/23 02:39:07;;;;;;;15.73;12.85;;;;;;;11.91;100.00;99669.34;5055521;28;20163;-89
2023/04/23 02:41:35;;;;;;;17.55;14.00;;;;;;;12.11;100.00;99708.75;5056915;28;20045;-88
2023/04/23 02:44:02;;;;;;;16.13;13.65;;;;;;;12.00;100.00;99674.06;5047230;28;20057;-89
2023/04/23 02:46:37;;;;;;;15.82;12.70;;;;;;;12.06;100.00;99692.25;5039875;28;20112;-88
2023/04/23 02:49:08;;;;;;;17.10;14.13;;;;;;;12.09;100.00;99704.47;5023744;28;20049;-88
2023/04/23 02:51:34;;;;;;;16.08;12.73;;;;;;;12.11;100.00;99706.09;5025464;28;20025;-87
2023/04/23 02:54:03;;;;;;;18.58;13.68;;;;;;;12.11;100.00;99708.75;5076166;28;20079;-87
2023/04/23 02:56:31;;;;;;;19.63;14.02;;;;;;;11.93;100.00;99681.56;5053997;28;20041;-89
2023/04/23 02:58:58;;;;;;;16.90;13.57;;;;;;;11.89;100.00;99676.56;5032850;28;20059;-87
2023/04/23 03:01:28;;;;;;;17.08;13.90;;;;;;;12.01;100.00;99709.41;5057956;28;20029;-89
2023/04/23 03:03:55;;;;;;;17.27;13.32;;;;;;;11.98;100.00;99707.78;5074138;28;20048;-88
2023/04/23 03:06:23;;;;;;;17.02;13.27;;;;;;;12.01;100.00;99718.22;5071858;28;20060;-87
2023/04/23 03:08:51;;;;;;;16.98;13.48;;;;;;;11.85;100.00;99690.97;5043798;28;20059;-87
2023/04/23 03:11:18;;;;;;;15.90;12.90;;;;;;;11.90;100.00;99713.59;5066712;28;20053;-89
2023/04/23 03:13:45;;;;;;;17.33;13.65;;;;;;;11.84;100.00;99715.78;5056747;28;20133;-88
2023/04/23 03:16:13;;;;;;;16.13;12.80;;;;;;;11.90;100.00;99721.56;5054561;28;20048;-89
2023/04/23 03:18:40;;;;;;;16.33;12.90;;;;;;;11.92;100.00;99727.63;5064760;28;20044;-87
2023/04/23 03:21:11;;;;;;;17.10;12.60;;;;;;;11.69;100.00;99674.28;5045268;28;20196;-86
2023/04/23 03:23:40;;;;;;;15.38;12.65;;;;;;;11.90;100.00;99696.84;5063304;28;20037;-90
2023/04/23 03:26:07;;;;;;;15.13;12.38;;;;;;;11.90;100.00;99695.03;5043404;28;20037;-90
2023/04/23 03:28:34;;;;;;;17.40;12.20;;;;;;;12.03;100.00;99718.97;5043994;28;20133;-89
2023/04/23 03:31:02;;;;;;;16.15;12.27;;;;;;;11.99;100.00;99717.47;5050374;28;20045;-87
2023/04/23 03:33:30;;;;;;;16.23;12.05;;;;;;;12.03;100.00;99721.63;5066447;28;20043;-87
2023/04/23 03:35:57;;;;;;;16.38;11.50;;;;;;;12.01;100.00;99728.84;5047090;28;20067;-88
2023/04/23 03:38:27;;;;;;;15.35;12.27;;;;;;;11.61;100.00;99653.56;5025239;28;20087;-87
2023/04/23 03:40:58;;;;;;;14.85;11.73;;;;;;;11.86;100.00;99687.34;5054898;28;20049;-87
2023/04/23 03:43:26;;;;;;;12.98;11.63;;;;;;;11.90;100.00;99694.19;5044846;28;20044;-87
2023/04/23 03:45:54;;;;;;;13.15;11.20;;;;;;;12.03;100.00;99713.66;5045838;28;20042;-85
2023/04/23 03:48:21;;;;;;;14.52;12.13;;;;;;;12.00;100.00;99719.16;5065723;28;20114;-85
2023/04/23 03:50:48;;;;;;;13.55;11.90;;;;;;;11.82;100.00;99688.50;5056473;28;20059;-88
2023/04/23 03:53:16;;;;;;;15.02;11.57;;;;;;;11.99;100.00;99722.78;5054259;28;20037;-86
2023/04/23 03:55:43;;;;;;;14.82;12.52;;;;;;;11.67;100.00;99687.63;5052557;28;20049;-88
2023/04/23 03:58:10;;;;;;;16.70;11.57;;;;;;;11.57;100.00;99668.78;5049809;28;20468;-88
2023/04/23 04:00:37;;;;;;;14.02;11.85;;;;;;;11.93;100.00;99715.22;5040512;28;20037;-87
2023/04/23 04:03:04;;;;;;;12.05;10.70;;;;;;;11.92;100.00;99719.66;5039769;28;20052;-87
2023/04/23 04:05:31;;;;;;;13.60;10.85;;;;;;;11.88;100.00;99714.66;5049070;28;20068;-86
2023/04/23 04:08:00;;;;;;;15.30;11.50;;;;;;;11.88;100.00;99717.28;5042674;28;20036;-86
2023/04/23 04:10:28;;;;;;;15.93;12.52;;;;;;;11.66;100.00;99693.03;5054053;28;20041;-86
2023/04/23 04:12:55;;;;;;;14.10;11.38;;;;;;;11.79;100.00;99718.75;5018305;28;20045;-87
2023/04/23 04:15:22;;;;;;;13.63;11.95;;;;;;;11.71;100.00;99707.72;5047980;28;20100;-88
2023/04/23 04:17:51;;;;;;;15.38;11.73;;;;;;;11.80;100.00;99720.44;5046894;28;20040;-86
2023/04/23 04:20:19;;;;;;;14.55;11.63;;;;;;;11.65;100.00;99697.47;5045117;28;20068;-88
2023/04/23 04:22:49;;;;;;;16.33;12.68;;;;;;;11.74;100.00;99704.03;5045627;28;20044;-87
2023/04/23 04:25:16;;;;;;;14.15;11.65;;;;;;;11.78;100.00;99713.53;5044711;28;20041;-88
2023/04/23 04:27:43;;;;;;;13.32;11.45;;;;;;;11.76;100.00;99710.13;5045084;28;20108;-88
2023/04/23 04:30:10;;;;;;;15.75;11.57;;;;;;;11.69;100.00;99712.25;5054010;28;20061;-88
2023/04/23 04:32:39;;;;;;;13.10;11.70;;;;;;;11.24;100.00;99644.38;5042871;28;20063;-88
2023/04/23 04:35:07;;;;;;;15.45;12.00;;;;;;;11.64;100.00;99718.81;5043004;28;20047;-86
2023/04/23 04:37:35;;;;;;;16.75;12.23;;;;;;;11.52;100.00;99708.00;5028510;28;20100;-87
2023/04/23 04:40:03;;;;;;;15.18;12.88;;;;;;;11.51;100.00;99714.25;5042809;28;20041;-86
2023/04/23 04:42:30;;;;;;;14.18;12.15;;;;;;;11.56;100.00;99722.78;5047520;28;20083;-88
2023/04/23 04:44:58;;;;;;;17.10;13.27;;;;;;;11.45;100.00;99704.03;5046367;28;20088;-86
2023/04/23 04:47:25;;;;;;;14.05;12.13;;;;;;;11.55;100.00;99736.13;5049643;28;20163;-84
2023/04/23 04:49:52;;;;;;;16.13;12.95;;;;;;;11.34;100.00;99695.00;5055590;28;20072;-88
2023/04/23 04:52:23;;;;;;;15.00;13.00;;;;;;;11.54;100.00;99737.06;5046949;28;20049;-85
2023/04/23 04:54:53;;;;;;;15.68;13.00;;;;;;;11.58;100.00;99739.44;5066611;28;20421;-86
2023/04/23 04:57:21;;;;;;;16.57;12.83;;;;;;;11.65;100.00;99742.56;5050229;28;20028;-87
2023/04/23 04:59:49;;;;;;;14.27;12.10;;;;;;;11.64;100.00;99740.03;5066330;28;20055;-86
2023/04/23 05:02:20;;;;;;;16.23;12.35;;;;;;;11.59;100.00;99730.53;5055340;28;20046;-88
2023/04/23 05:04:50;;;;;;;15.98;13.00;;;;;;;11.52;100.00;99721.25;5056551;28;20039;-86
2023/04/23 05:07:19;;;;;;;15.80;12.27;;;;;;;11.67;100.00;99723.91;5058176;28;20036;-85
2023/04/23 05:09:46;;;;;;;15.77;12.60;;;;;;;11.63;100.00;99701.19;5057578;28;20048;-86
2023/04/23 05:12:15;;;;;;;15.40;12.70;;;;;;;11.83;100.00;99733.50;5053010;28;20037;-84
2023/04/23 05:14:42;;;;;;;13.50;11.95;;;;;;;11.81;100.00;99710.66;5048772;28;20059;-87
2023/04/23 05:17:10;;;;;;;15.70;12.77;;;;;;;11.90;100.00;99737.47;5042551;28;20053;-87
2023/04/23 05:19:37;;;;;;;13.70;12.18;;;;;;;11.88;100.00;99735.88;5048046;28;20102;-88
2023/04/23 05:22:05;;;;;;;14.93;12.05;;;;;;;11.80;100.00;99711.63;5050248;28;20045;-85
2023/04/23 05:24:32;;;;;;;12.00;10.20;;;;;;;11.91;100.00;99733.88;5051607;28;20063;-88
2023/04/23 05:27:00;;;;;;;12.32;10.63;;;;;;;11.93;100.00;99737.28;5051122;28;20104;-89
2023/04/23 05:29:30;;;;;;;12.82;10.60;;;;;;;11.87;100.00;99744.78;5036044;28;20357;-87
2023/04/23 05:31:58;;;;;;;11.77;10.45;;;;;;;11.73;100.00;99713.78;5051502;28;20109;-87
2023/04/23 05:34:25;;;;;;;13.68;9.60;;;;;;;11.36;100.00;99634.81;5055445;28;20045;-87
2023/04/23 05:36:53;;;;;;;11.00;9.60;;;;;;;11.88;100.00;99718.16;5054548;28;20047;-88
2023/04/23 05:39:20;;;;;;;11.95;9.95;;;;;;;11.82;100.00;99701.75;5053525;28;20049;-86
2023/04/23 05:41:49;;;;;;;11.50;9.57;;;;;;;12.01;100.00;99712.06;5065741;28;20088;-85
2023/04/23 05:44:16;;;;;;;11.85;9.80;;;;;;;12.14;100.00;99748.31;5071703;28;20056;-85
2023/04/23 05:46:45;;;;;;;11.52;9.52;;;;;;;11.94;100.00;99711.63;5065220;28;20036;-85
2023/04/23 05:49:13;;;;;;;10.15;9.13;;;;;;;12.06;100.00;99742.66;5052642;28;20097;-86
2023/04/23 05:51:40;;;;;;;9.98;8.95;;;;;;;11.97;100.00;99731.78;5029951;28;20033;-87
2023/04/23 05:54:07;;;;;;;11.38;9.82;;;;;;;12.09;100.00;99737.19;5041289;28;20041;-87
2023/04/23 05:56:34;;;;;;;10.10;8.63;;;;;;;12.18;100.00;99725.97;5071056;28;20037;-87
2023/04/23 05:59:01;;;;;;;11.13;9.38;;;;;;;12.41;100.00;99750.19;5073318;28;20041;-87
2023/04/23 06:01:31;;;;;;;8.93;8.02;;;;;;;12.26;100.00;99718.38;5051939;28;20033;-87
2023/04/23 06:04:03;;;;;;;9.93;7.80;;;;;;;12.32;100.00;99710.94;5055446;28;20052;-88
2023/04/23 06:06:50;;;;;;;10.00;8.68;;;;;;;12.70;100.00;99762.41;5032796;28;20041;-89
2023/04/23 06:09:22;;;;;;;10.25;8.18;;;;;;;12.70;100.00;99724.38;5043817;28;20182;-88
2023/04/23 06:11:52;;;;;;;10.00;7.75;;;;;;;13.11;100.00;99750.81;5045852;28;20048;-90
2023/04/23 06:14:19;;;;;;;10.93;8.10;;;;;;;13.29;100.00;99749.63;5037365;28;20052;-89
2023/04/23 06:16:51;;;;;;;8.93;7.15;;;;;;;13.42;100.00;99750.47;5025445;28;20046;-89
2023/04/23 06:19:18;;;;;;;8.07;7.28;;;;;;;13.32;100.00;99736.97;5018530;28;20038;-90
2023/04/23 06:21:47;;;;;;;8.98;8.07;;;;;;;13.27;100.00;99749.72;5023851;28;20617;-91
2023/04/23 06:24:23;;;;;;;8.90;8.00;;;;;;;12.86;100.00;99727.72;5019286;28;20442;-91
2023/04/23 06:26:52;;;;;;;9.07;7.57;;;;;;;12.84;100.00;99749.06;5023989;28;20050;-92
2023/04/23 06:29:26;;;;;;;9.77;7.68;;;;;;;12.78;100.00;99752.13;5022902;28;20077;-90
2023/04/23 06:32:21;;;;;;;10.65;7.80;;;;;;;12.82;100.00;99745.66;5020907;28;20045;-95
2023/04/23 06:35:08;;;;;;;8.43;7.53;;;;;;;13.09;100.00;99748.25;5022268;28;20042;-92
2023/04/23 06:37:41;;;;;;;7.97;6.90;;;;;;;12.86;100.00;99679.88;5016367;28;20046;-94
2023/04/23 06:40:11;;;;;;;8.32;7.40;;;;;;;12.93;100.00;99723.66;5019305;28;20046;-93
2023/04/23 06:43:04;;;;;;;7.90;7.03;;;;;;;12.53;100.00;99681.19;5005195;28;20044;-94
2023/04/23 06:45:35;;;;;;;9.23;8.23;;;;;;;12.45;100.00;99664.91;5022335;28;20050;-93
2023/04/23 06:48:15;;;;;;;9.43;7.88;;;;;;;12.51;100.00;99656.53;5023183;28;20049;-93
2023/04/23 06:51:01;;;;;;;10.93;7.65;;;;;;;12.78;100.00;99738.84;5011864;28;20073;-93
2023/04/23 06:53:28;;;;;;;7.95;7.15;;;;;;;12.63;100.00;99723.91;5029051;28;20061;-91
2023/04/23 06:56:27;;;;;;;9.20;7.22;;;;;;;12.77;100.00;99744.25;5029246;28;20061;-92
2023/04/23 06:58:55;;;;;;;7.72;6.97;;;;;;;12.95;100.00;99754.50;5018827;28;20093;-93
2023/04/23 07:10:50;;;;;;;9.43;7.28;;;;;;;12.97;100.00;99677.34;4948807;28;20116;-94
2023/04/23 07:13:39;;;;;;;7.38;6.65;;;;;;;13.27;100.00;99727.59;4960560;28;20107;-93
2023/04/23 07:28:05;;;;;;;8.25;7.45;;;;;;;13.56;100.00;99714.94;5111628;28;20780;-93
2023/04/23 07:30:47;;;;;;;7.28;6.55;;;;;;;13.97;100.00;99712.00;5084949;28;20045;-93
2023/04/23 07:33:43;;;;;;;8.57;6.88;;;;;;;14.36;100.00;99727.75;5106091;28;20036;-92
2023/04/23 07:36:27;;;;;;;7.45;6.50;;;;;;;14.32;100.00;99733.44;5178604;22;20074;-92
2023/04/23 07:48:40;;;;;;;7.43;6.65;;;;;;;13.33;100.00;99725.38;5155428;23;20072;-93
2023/04/23 07:51:30;;;;;;;7.50;6.80;;;;;;;13.38;100.00;99705.59;5038297;28;20061;-92
2023/04/23 07:54:13;;;;;;;7.32;6.63;;;;;;;13.84;100.00;99727.16;5046029;28;20101;-91
2023/04/23 07:57:00;;;;;;;8.07;6.80;;;;;;;14.16;100.00;99717.72;5042477;28;20049;-92
2023/04/23 08:05:49;;;;;;;7.93;7.07;;;;;;;14.54;100.00;99722.06;5118027;23;20058;-93
2023/04/23 08:08:27;;;;;;;7.25;6.32;;;;;;;14.43;100.00;99728.19;5009410;28;20106;-92
2023/04/23 08:19:00;;;;;;;10.77;8.95;;;;;;;12.98;100.00;99626.75;5005260;28;20106;-91
2023/04/23 08:22:14;;;;;;;10.30;8.68;;;;;;;12.80;100.00;99614.72;4991579;28;20039;-90
2023/04/23 08:25:26;;;;;;;11.88;8.95;;;;;;;13.29;100.00;99684.00;5010364;28;20042;-92
2023/04/23 08:28:19;;;;;;;11.40;9.40;;;;;;;13.12;100.00;99664.81;5004062;28;20035;-92
2023/04/23 08:30:56;;;;;;;12.80;9.65;;;;;;;13.46;100.00;99712.06;4998729;28;20046;-92
2023/04/23 08:33:43;;;;;;;9.85;8.82;;;;;;;13.18;100.00;99654.66;5006525;28;20042;-93
2023/04/23 08:36:26;;;;;;;11.60;10.32;;;;;;;13.51;100.00;99654.09;5019354;28;20047;-92
2023/04/23 08:39:04;;;;;;;10.48;9.38;;;;;;;14.41;100.00;99699.97;4985518;28;20042;-93
2023/04/23 08:42:04;;;;;;;10.55;9.02;;;;;;;14.83;100.00;99702.09;5001932;28;20046;-91
2023/04/23 08:45:03;;;;;;;10.30;8.90;;;;;;;14.72;100.00;99628.28;4995419;28;20054;-92
2023/04/23 08:47:44;;;;;;;8.40;7.60;;;;;;;14.69;100.00;99617.84;4991840;28;20055;-93
2023/04/23 08:50:29;;;;;;;9.82;7.68;;;;;;;15.19;100.00;99697.59;4988397;28;20049;-92
2023/04/23 08:52:58;;;;;;;7.57;6.43;;;;;;;15.28;100.00;99699.53;4993755;28;20038;-91
2023/04/23 08:55:40;;;;;;;7.15;5.60;;;;;;;14.92;100.00;99703.22;4991309;28;20046;-92
2023/04/23 08:58:26;;;;;;;8.68;5.57;;;;;;;14.58;100.00;99702.25;4981123;28;20035;-92
2023/04/23 09:01:20;;;;;;;6.10;5.43;;;;;;;14.33;100.00;99682.69;4982069;28;20041;-92
2023/04/23 09:04:15;;;;;;;6.38;5.65;;;;;;;14.53;100.00;99662.59;4976333;28;20145;-92
2023/04/23 09:07:27;;;;;;;7.43;5.38;;;;;;;15.20;100.00;99685.97;5000281;28;20093;-91
2023/04/23 09:10:03;;;;;;;5.60;4.85;;;;;;;15.59;100.00;99677.53;4971454;28;20061;-90
2023/04/23 09:12:45;;;;;;;7.95;5.03;;;;;;;15.72;100.00;99664.94;4961840;28;20042;-91
2023/04/23 09:15:23;;;;;;;6.70;4.82;;;;;;;15.87;100.00;99638.81;4951644;29;20048;-89
2023/04/23 09:18:23;;;;;;;5.88;5.15;;;;;;;16.03;100.00;99603.72;4929970;29;20058;-90
2023/04/23 09:21:06;;;;;;;6.30;4.90;;;;;;;16.60;100.00;99669.34;4943122;29;20035;-93
2023/04/23 09:23:40;;;;;;;6.55;4.82;;;;;;;16.58;100.00;99615.16;4948234;29;20056;-92
2023/04/23 09:26:21;;;;;;;5.00;4.15;;;;;;;17.10;97.10;99657.94;4921516;29;20595;-92
2023/04/23 09:29:03;;;;;;;4.03;3.63;;;;;;;17.55;92.53;99657.59;4940367;29;20155;-92
2023/04/23 09:32:21;;;;;;;5.45;4.10;;;;;;;17.94;86.16;99658.63;4953613;29;20150;-93
2023/04/23 09:35:08;;;;;;;4.70;3.70;;;;;;;18.04;79.10;99599.72;4978375;28;20043;-95
2023/04/23 09:38:16;;;;;;;7.20;3.58;;;;;;;18.58;77.07;99647.41;5003787;28;20102;-92
2023/04/23 09:41:20;;;;;;;6.25;3.55;;;;;;;18.53;77.53;99642.50;4995420;28;20081;-92
2023/04/23 09:44:07;;;;;;;4.03;3.20;;;;;;;18.14;77.20;99620.16;4999358;28;20046;-93
2023/04/23 09:46:55;;;;;;;;;;;;;;;17.86;82.13;99637.88;4973313;28;20038;-93
2023/04/23 09:49:53;;;;;;;5.20;3.17;;;;;;;17.50;84.73;99617.00;4964987;28;19921;-94
2023/04/23 09:52:55;;;;;;;3.53;3.22;;;;;;;17.14;85.89;99619.25;4997333;28;20062;-92
2023/04/23 09:55:46;;;;;;;4.82;2.95;;;;;;;17.37;81.88;99613.69;4988555;28;20062;-93
2023/04/23 09:58:34;;;;;;;4.20;3.42;;;;;;;17.39;83.56;99591.19;4988685;28;20045;-94
2023/04/23 10:01:34;;;;;;;3.83;3.50;;;;;;;17.69;83.12;99637.66;4999121;28;20169;-91
2023/04/23 10:04:37;;;;;;;5.63;3.70;;;;;;;17.23;82.09;99589.97;5007626;28;20058;-90
2023/04/23 10:07:21;;;;;;;4.20;3.25;;;;;;;16.83;85.93;99572.88;4995975;28;20035;-92
2023/04/23 10:10:08;;;;;;;3.53;2.70;;;;;;;16.72;79.80;99585.44;4977826;28;20042;-92
2023/04/23 10:12:55;;;;;;;4.63;2.80;;;;;;;17.03;77.41;99586.34;4991525;28;20034;-91
2023/04/23 10:16:03;;;;;;;4.32;3.05;;;;;;;17.46;70.99;99576.28;4963888;28;20038;-87
2023/04/23 10:19:26;;;;;;;5.50;2.72;;;;;;;17.38;68.23;99540.47;4986073;28;20047;-94
2023/04/23 10:22:23;;;;;;;3.95;2.33;;;;;;;18.08;67.49;99618.06;4991359;28;20035;-92
2023/04/23 10:25:11;;;;;;;4.55;2.80;;;;;;;17.92;66.88;99604.34;4995764;28;20035;-93
2023/04/23 10:28:15;;;;;;;2.95;2.40;;;;;;;17.97;71.09;99614.63;4950211;28;20043;-92
2023/04/23 10:31:02;;;;;;;3.47;3.17;;;;;;;17.82;69.95;99612.34;4982236;28;20050;-93
2023/04/23 10:34:00;;;;;;;6.70;3.40;;;;;;;17.52;72.50;99620.38;4961839;28;20492;-92
2023/04/23 10:37:14;;;;;;;4.60;3.40;;;;;;;17.32;75.39;99624.78;4977627;28;20070;-94
2023/04/23 10:40:04;;;;;;;5.80;2.83;;;;;;;17.27;76.80;99597.59;4970373;28;20074;-93
2023/04/23 10:42:43;;;;;;;4.32;2.80;;;;;;;16.79;77.48;99528.66;4978228;28;20074;-94
2023/04/23 10:45:31;;;;;;;4.72;3.10;;;;;;;16.84;77.34;99574.56;4975986;28;20066;-92
2023/04/23 10:48:15;;;;;;;5.15;2.63;;;;;;;17.17;73.86;99612.75;4999404;28;20038;-93
2023/04/23 10:51:08;;;;;;;5.07;2.38;;;;;;;17.16;70.36;99566.41;4973068;28;20050;-93
2023/04/23 10:54:04;;;;;;;5.03;2.60;;;;;;;17.39;70.83;99558.22;4973112;28;20109;-93
2023/04/23 10:57:06;;;;;;;5.35;2.70;;;;;;;17.86;70.36;99595.03;4975334;28;20074;-92
2023/04/23 11:02:24;;;;;;;4.38;2.90;;;;;;;17.83;68.72;99547.09;5139907;23;20064;-92
2023/04/23 11:05:30;;;;;;;3.45;2.88;;;;;;;18.18;69.77;99580.53;4962603;28;20039;-92
2023/04/23 11:08:32;;;;;;;4.07;2.88;;;;;;;18.55;64.96;99583.38;4988036;28;20039;-93
2023/04/23 11:11:15;;;;;;;3.05;2.50;;;;;;;18.53;63.42;99512.97;4970305;28;20089;-93
2023/04/23 11:13:54;;;;;;;3.78;3.08;;;;;;;18.94;62.31;99565.41;4990611;28;20060;-92
2023/04/23 11:16:44;;;;;;;4.22;2.80;;;;;;;18.70;60.66;99571.25;4992793;28;20062;-93
2023/04/23 11:19:41;;;;;;;4.55;3.05;;;;;;;18.30;63.33;99566.00;4963582;28;20043;-92
2023/04/23 11:23:11;;;;;;;3.75;2.72;;;;;;;17.82;65.52;99526.63;4975361;28;20035;-92
2023/04/23 11:26:09;;;;;;;3.08;2.75;;;;;;;18.29;65.16;99558.13;5004949;28;20034;-93
2023/04/23 11:29:28;;;;;;;4.03;2.80;;;;;;;18.60;59.66;99553.47;5239590;23;20049;-92
2023/04/23 11:32:48;;;;;;;2.70;2.30;;;;;;;18.55;60.14;99529.75;4986901;28;20038;-90
2023/04/23 11:35:53;;;;;;;3.42;2.95;;;;;;;17.94;61.52;99547.97;5005873;28;20049;-93
2023/04/23 11:39:11;;;;;;;3.08;2.67;;;;;;;17.12;65.69;99529.38;4992083;28;20042;-93
2023/04/23 11:41:51;;;;;;;3.60;2.75;;;;;;;16.83;71.57;99535.44;5000785;28;20038;-92
2023/04/23 11:44:41;;;;;;;5.53;3.85;;;;;;;16.76;73.57;99533.44;4982400;28;20069;-93
2023/04/23 11:51:40;;;;;;;4.20;3.00;;;;;;;16.60;78.72;99503.63;4988428;28;20037;-92
2023/04/23 11:54:59;;;;;;;3.50;3.10;;;;;;;16.86;79.76;99531.63;4975015;28;20051;-92
2023/04/23 11:58:33;;;;;;;5.13;2.97;;;;;;;16.84;79.91;99530.97;4987695;28;20119;-93
2023/04/23 12:02:02;;;;;;;4.72;3.40;;;;;;;16.76;83.79;99528.94;4986865;28;20045;-93
2023/04/23 12:04:47;;;;;;;4.68;3.30;;;;;;;16.91;87.05;99531.25;4987889;28;20081;-90
2023/04/23 12:08:28;;;;;;;5.57;3.47;;;;;;;16.60;89.83;99501.78;4982451;28;20057;-92
2023/04/23 12:11:26;;;;;;;5.72;3.42;;;;;;;17.13;91.43;99513.22;4987776;28;20038;-92
2023/04/23 12:14:25;;;;;;;7.13;3.80;;;;;;;17.27;85.92;99444.25;4995079;28;20043;-92
2023/04/23 12:17:24;;;;;;;6.25;3.60;;;;;;;17.58;86.00;99488.69;4984909;28;20057;-91
2023/04/23 12:20:59;;;;;;;4.53;3.57;;;;;;;17.19;85.63;99485.03;4983820;28;20040;-91
2023/04/23 12:23:50;;;;;;;5.38;3.45;;;;;;;17.08;87.43;99495.84;4985541;28;20026;-91
2023/04/23 12:26:37;;;;;;;6.75;3.63;;;;;;;17.17;88.65;99495.03;4989359;28;20038;-91
2023/04/23 12:29:21;;;;;;;3.45;3.13;;;;;;;17.20;87.84;99481.38;4991035;28;20027;-92
2023/04/23 12:31:53;;;;;;;4.22;3.63;;;;;;;17.36;87.04;99507.63;4985892;28;20075;-91
2023/04/23 12:34:20;;;;;;;3.80;3.40;;;;;;;17.20;86.74;99489.41;4970172;28;20058;-91
2023/04/23 12:36:53;;;;;;;5.05;3.00;;;;;;;17.26;87.10;99486.22;4986824;28;20102;-91
2023/04/23 12:39:35;;;;;;;4.75;3.10;;;;;;;17.51;86.25;99492.88;4980741;28;20566;-91
2023/04/23 12:42:16;;;;;;;4.65;3.35;;;;;;;17.68;83.58;99484.22;5001759;28;20107;-92
2023/04/23 12:44:51;;;;;;;3.95;3.55;;;;;;;17.53;81.07;99454.28;4983884;28;20043;-92
2023/04/23 12:47:20;;;;;;;3.97;3.35;;;;;;;17.61;82.77;99471.50;5009229;28;20111;-90
2023/04/23 12:49:55;;;;;;;4.57;3.42;;;;;;;17.63;81.75;99429.38;5034932;23;20078;-92
2023/04/23 12:53:12;;;;;;;4.50;3.22;;;;;;;18.15;79.18;99444.16;4987907;28;20050;-89
2023/04/23 12:55:47;;;;;;;5.13;3.17;;;;;;;18.06;76.51;99423.59;4986804;28;20047;-91
2023/04/23 12:58:37;;;;;;;3.95;3.15;;;;;;;17.83;75.62;99448.00;4988545;28;20031;-89
2023/04/23 13:01:30;;;;;;;;;;;;;;;;;;;;;
2023/04/23 13:04:25;;;;;;;4.43;3.47;;;;;;;18.23;74.61;99377.31;4996542;28;20078;-92
2023/04/23 13:07:23;;;;;;;4.47;3.33;;;;;;;18.78;70.11;99420.31;4984096;28;20202;-91
2023/04/23 13:09:58;;;;;;;4.72;3.13;;;;;;;18.52;68.63;99387.94;4986022;28;20047;-91